Time;durP1;ratioP1;P1;durP2;ratioP2;P2;SDS_P1;SDS_P2;PMS_P1;PMS_P2;Temp;Humidity;BMP_temperature;BMP_pressure;BME280_temperature;BME280_humidity;BME280_pressure;Samples;Min_cycle;Max_cycle;Signal;HPM_P1;HPM_P2
2023/05/10 00:02:24;;;;;;;6.60;5.22;;;;;;;21.09;53.84;96189.00;5035094;28;20556;-30
2023/05/10 00:04:49;;;;;;;6.55;5.50;;;;;;;21.14;53.91;96183.47;5034558;28;20488;-30
2023/05/10 00:07:17;;;;;;;6.50;5.68;;;;;;;21.27;53.46;96185.00;5034722;28;20018;-30
2023/05/10 00:09:43;;;;;;;7.45;5.65;;;;;;;21.07;53.71;96178.47;5035046;28;20025;-31
2023/05/10 00:12:08;;;;;;;7.75;4.90;;;;;;;21.12;52.68;96176.97;5034520;28;20025;-30
2023/05/10 00:14:34;;;;;;;6.85;5.45;;;;;;;21.08;53.28;96176.47;5041981;28;20155;-30
2023/05/10 00:17:00;;;;;;;5.75;4.75;;;;;;;21.09;52.51;96167.69;5034827;28;20013;-29
2023/05/10 00:19:25;;;;;;;5.68;4.65;;;;;;;21.11;52.36;96164.44;5034174;28;20029;-29
2023/05/10 00:21:50;;;;;;;6.57;4.90;;;;;;;21.21;51.95;96154.69;5034629;28;20018;-30
2023/05/10 00:24:16;;;;;;;5.65;4.70;;;;;;;21.15;51.96;96162.91;5034512;28;20021;-30
2023/05/10 00:26:42;;;;;;;5.00;4.15;;;;;;;21.19;51.82;96165.47;5034130;28;20378;-30
2023/05/10 00:29:08;;;;;;;6.78;4.40;;;;;;;21.22;51.63;96160.94;5034147;28;20104;-29
2023/05/10 00:31:34;;;;;;;5.25;4.30;;;;;;;21.10;51.55;96163.69;5032710;28;20056;-30
2023/05/10 00:33:59;;;;;;;4.95;3.63;;;;;;;21.09;51.55;96150.41;5034049;28;20414;-29
2023/05/10 00:36:25;;;;;;;5.65;4.05;;;;;;;20.99;51.93;96149.91;5033960;28;20446;-29
2023/05/10 00:38:50;;;;;;;7.03;4.20;;;;;;;21.03;51.51;96147.63;5034690;28;20029;-30
2023/05/10 00:41:16;;;;;;;7.63;4.20;;;;;;;20.97;51.48;96146.91;5032675;28;20112;-29
2023/05/10 00:43:41;;;;;;;8.05;4.35;;;;;;;21.04;51.53;96142.88;5034074;28;20024;-30
2023/05/10 00:46:07;;;;;;;6.38;4.00;;;;;;;21.12;51.04;96133.63;5034351;28;20028;-31
2023/05/10 00:48:33;;;;;;;7.65;3.90;;;;;;;20.99;51.28;96135.38;5033977;28;20029;-29
2023/05/10 00:51:00;;;;;;;4.50;3.83;;;;;;;21.09;50.95;96126.34;5033995;28;20025;-29
2023/05/10 00:53:26;;;;;;;4.85;3.70;;;;;;;20.95;51.21;96134.88;5039321;28;20064;-31
2023/05/10 00:55:52;;;;;;;4.80;4.30;;;;;;;20.92;51.40;96131.09;5033718;28;20072;-30
2023/05/10 00:58:17;;;;;;;6.00;4.65;;;;;;;21.03;50.46;96133.84;5039918;28;20021;-30
2023/05/10 01:00:45;;;;;;;4.38;3.97;;;;;;;20.95;50.92;96124.59;5033611;28;20103;-29
2023/05/10 01:03:11;;;;;;;4.50;4.00;;;;;;;20.92;51.27;96124.84;5033462;28;20030;-29
2023/05/10 01:05:37;;;;;;;5.38;3.90;;;;;;;21.04;50.82;96124.34;5033618;28;20064;-29
2023/05/10 01:08:02;;;;;;;5.28;3.97;;;;;;;21.05;50.80;96122.31;5033539;28;20021;-30
2023/05/10 01:10:28;;;;;;;5.70;4.10;;;;;;;21.07;50.54;96119.81;5033474;28;20036;-29
2023/05/10 01:12:56;;;;;;;4.25;3.85;;;;;;;20.84;50.92;96121.09;5033299;28;20025;-29
2023/05/10 01:15:22;;;;;;;5.32;3.97;;;;;;;20.86;50.99;96122.09;5033382;28;20022;-29
2023/05/10 01:17:48;;;;;;;5.75;4.15;;;;;;;20.94;51.00;96112.06;5033198;28;20350;-29
2023/05/10 01:20:15;;;;;;;5.85;4.30;;;;;;;20.91;51.13;96117.81;5033354;28;20021;-30
2023/05/10 01:22:55;;;;;;;5.32;3.88;;;;;;;20.99;50.74;96113.31;5033592;28;20029;-29
2023/05/10 01:26:00;;;;;;;8.00;4.30;;;;;;;21.02;50.85;96115.81;5032934;28;20024;-29
2023/05/10 01:29:16;;;;;;;6.90;4.65;;;;;;;20.71;51.62;96110.56;5033227;28;20466;-30
2023/05/10 01:32:05;;;;;;;6.40;4.32;;;;;;;20.74;51.69;96109.56;5037227;28;20099;-30
2023/05/10 01:34:42;;;;;;;6.10;4.30;;;;;;;20.91;51.11;96115.81;5036335;28;20420;-29
2023/05/10 01:37:13;;;;;;;6.18;4.47;;;;;;;20.97;51.12;96116.59;5033599;28;20014;-30
2023/05/10 01:39:50;;;;;;;5.93;4.40;;;;;;;20.93;51.35;96107.06;5033220;28;20048;-30
2023/05/10 01:42:27;;;;;;;7.10;4.45;;;;;;;20.97;51.11;96105.56;5033207;28;20100;-29
2023/05/10 01:45:02;;;;;;;7.32;4.22;;;;;;;20.91;51.08;96104.78;5033104;28;20442;-29
2023/05/10 01:47:33;;;;;;;6.00;4.60;;;;;;;20.87;51.40;96101.56;5033227;28;20026;-30
2023/05/10 01:50:02;;;;;;;6.15;4.45;;;;;;;20.90;51.85;96102.53;5034699;28;20377;-30
2023/05/10 01:52:38;;;;;;;7.35;4.60;;;;;;;20.67;52.18;96102.56;5033277;28;20026;-29
2023/05/10 01:55:15;;;;;;;5.95;4.40;;;;;;;20.97;51.45;96110.31;5033304;28;20619;-29
2023/05/10 01:57:43;;;;;;;8.68;4.65;;;;;;;20.69;52.23;96102.06;5033386;28;20431;-29
2023/05/10 02:00:10;;;;;;;7.35;4.70;;;;;;;20.71;52.34;96096.81;5032891;28;20032;-30
2023/05/10 02:02:42;;;;;;;6.18;4.38;;;;;;;20.68;52.55;96100.53;5032784;28;20488;-29
2023/05/10 02:05:09;;;;;;;5.90;4.57;;;;;;;20.59;53.00;96098.81;5032631;28;20036;-29
2023/05/10 02:07:36;;;;;;;5.05;4.28;;;;;;;20.83;52.65;96095.53;5032716;28;20018;-30
2023/05/10 02:10:04;;;;;;;7.45;5.25;;;;;;;20.76;52.99;96096.06;5032665;28;20017;-30
2023/05/10 02:12:32;;;;;;;9.05;4.97;;;;;;;20.82;52.84;96102.31;5032898;28;20021;-30
2023/05/10 02:15:01;;;;;;;8.35;4.80;;;;;;;20.68;53.34;96089.53;5034247;28;20025;-29
2023/05/10 02:17:28;;;;;;;7.07;4.82;;;;;;;20.76;53.15;96085.03;5036576;28;20025;-30
2023/05/10 02:19:55;;;;;;;5.82;4.93;;;;;;;20.60;53.27;96092.03;5036954;28;20025;-29
2023/05/10 02:22:22;;;;;;;8.40;5.13;;;;;;;20.67;53.29;96097.03;5036371;28;20021;-30
2023/05/10 02:24:49;;;;;;;9.57;5.10;;;;;;;20.75;53.07;96083.53;5044114;28;20896;-30
2023/05/10 02:27:17;;;;;;;6.85;4.78;;;;;;;20.74;53.26;96093.03;5036650;28;20052;-29
2023/05/10 02:29:44;;;;;;;7.40;5.10;;;;;;;20.70;53.56;96087.03;5036764;28;20029;-29
2023/05/10 02:32:11;;;;;;;8.30;4.88;;;;;;;20.71;53.31;96074.75;5036210;28;20457;-29
2023/05/10 02:34:37;;;;;;;6.47;5.00;;;;;;;20.83;52.95;96084.50;5036235;28;20079;-30
2023/05/10 02:37:03;;;;;;;5.25;4.70;;;;;;;20.77;53.20;96081.03;5039346;28;20733;-30
2023/05/10 02:39:29;;;;;;;8.65;5.03;;;;;;;20.74;53.59;96073.75;5040662;28;20048;-30
2023/05/10 02:41:57;;;;;;;5.93;4.93;;;;;;;20.76;53.73;96074.00;5036140;28;20029;-30
2023/05/10 02:44:22;;;;;;;7.78;5.38;;;;;;;20.79;53.29;96078.50;5036147;28;20427;-29
2023/05/10 02:46:48;;;;;;;5.97;5.05;;;;;;;20.74;53.29;96074.50;5036031;28;20029;-29
2023/05/10 02:49:15;;;;;;;7.68;5.30;;;;;;;20.56;53.85;96071.50;5036217;28;20048;-29
2023/05/10 02:51:44;;;;;;;6.53;4.93;;;;;;;20.82;53.26;96066.47;5035825;28;20029;-30
2023/05/10 02:54:20;;;;;;;6.13;4.82;;;;;;;20.85;53.19;96067.47;5039881;28;20047;-29
2023/05/10 02:56:53;;;;;;;6.57;5.40;;;;;;;20.69;53.73;96057.97;5035918;28;20037;-29
2023/05/10 02:59:19;;;;;;;8.60;4.90;;;;;;;20.77;53.21;96056.22;5036727;28;20061;-29
2023/05/10 03:01:45;;;;;;;9.10;5.18;;;;;;;20.46;54.34;96056.47;5035975;28;20429;-29
2023/05/10 03:04:10;;;;;;;6.20;4.60;;;;;;;20.77;53.46;96053.47;5035585;28;20496;-29
2023/05/10 03:06:36;;;;;;;7.32;4.95;;;;;;;20.58;54.07;96042.19;5035731;28;20070;-31
2023/05/10 03:09:03;;;;;;;6.10;4.85;;;;;;;20.84;53.48;96050.19;5035527;28;20025;-29
2023/05/10 03:11:54;;;;;;;6.03;4.97;;;;;;;20.74;53.82;96043.44;5035720;28;20423;-29
2023/05/10 03:14:45;;;;;;;7.38;5.60;;;;;;;20.81;54.09;96042.91;5041772;28;20040;-30
2023/05/10 03:17:33;;;;;;;8.25;6.38;;;;;;;20.61;54.54;96035.69;5035351;28;20116;-30
2023/05/10 03:20:11;;;;;;;6.97;5.05;;;;;;;20.87;53.97;96029.91;5035891;28;20052;-30
2023/05/10 03:22:51;;;;;;;6.72;5.57;;;;;;;20.65;54.84;96032.66;5035193;28;20056;-30
2023/05/10 03:25:19;;;;;;;7.38;5.40;;;;;;;20.63;54.59;96032.44;5035520;28;20068;-29
2023/05/10 03:27:45;;;;;;;9.38;5.65;;;;;;;20.71;54.57;96033.41;5035338;28;20040;-30
2023/05/10 03:30:12;;;;;;;7.60;5.22;;;;;;;20.77;54.41;96031.41;5035411;28;20018;-30
2023/05/10 03:32:38;;;;;;;7.20;5.25;;;;;;;20.80;54.40;96035.91;5035593;28;20112;-32
2023/05/10 03:35:11;;;;;;;6.18;5.25;;;;;;;20.63;54.87;96032.44;5035131;28;20021;-30
2023/05/10 03:37:37;;;;;;;7.53;5.22;;;;;;;20.66;54.84;96025.91;5042493;28;20064;-30
2023/05/10 03:40:03;;;;;;;7.53;5.68;;;;;;;20.55;55.19;96029.41;5049528;28;20033;-30
2023/05/10 03:42:29;;;;;;;7.75;5.45;;;;;;;20.53;55.31;96028.41;5039622;28;20047;-32
2023/05/10 03:44:55;;;;;;;7.72;5.90;;;;;;;20.71;54.93;96027.91;5035274;28;20467;-29
2023/05/10 03:47:20;;;;;;;9.05;5.68;;;;;;;20.82;54.63;96032.66;5034977;28;20021;-29
2023/05/10 03:49:46;;;;;;;7.38;5.20;;;;;;;20.65;55.29;96029.91;5035101;28;20531;-30
2023/05/10 03:52:11;;;;;;;8.10;6.03;;;;;;;20.68;55.31;96023.41;5034966;28;20104;-29
2023/05/10 03:54:37;;;;;;;7.05;5.45;;;;;;;20.85;55.15;96020.63;5034840;28;20021;-29
2023/05/10 03:57:03;;;;;;;8.18;5.78;;;;;;;20.88;54.72;96025.88;5035277;28;20374;-29
2023/05/10 03:59:29;;;;;;;6.25;4.85;;;;;;;20.80;54.82;96022.88;5035098;28;20037;-30
2023/05/10 04:01:54;;;;;;;6.85;5.28;;;;;;;20.91;54.82;96019.34;5034723;28;20029;-30
2023/05/10 04:04:21;;;;;;;8.15;5.85;;;;;;;20.66;55.38;96020.38;5034873;28;20036;-30
2023/05/10 04:06:46;;;;;;;10.57;5.93;;;;;;;20.74;55.01;96016.63;5033638;28;20032;-31
2023/05/10 04:09:12;;;;;;;10.15;6.20;;;;;;;20.52;55.50;96015.91;5034285;28;20025;-30
2023/05/10 04:11:37;;;;;;;7.57;5.72;;;;;;;20.61;55.26;96010.88;5034804;28;20047;-29
2023/05/10 04:14:02;;;;;;;9.80;5.57;;;;;;;20.81;55.01;96012.59;5034723;28;20028;-30
2023/05/10 04:16:28;;;;;;;8.63;5.38;;;;;;;20.69;55.06;96009.13;5034190;28;20458;-32
2023/05/10 04:18:54;;;;;;;7.85;5.30;;;;;;;20.65;55.28;96010.63;5034840;28;20025;-30
2023/05/10 04:21:19;;;;;;;9.38;5.35;;;;;;;20.77;55.03;96009.38;5034158;28;20461;-30
2023/05/10 04:23:45;;;;;;;6.78;5.18;;;;;;;20.82;54.72;96010.59;5047562;28;20021;-29
2023/05/10 04:26:10;;;;;;;6.22;5.13;;;;;;;20.74;55.14;96011.13;5034078;28;20017;-31
2023/05/10 04:28:36;;;;;;;6.20;5.10;;;;;;;20.82;55.02;96007.84;5032928;28;20028;-29
2023/05/10 04:31:09;;;;;;;6.45;5.35;;;;;;;20.73;55.47;96012.38;5034210;28;20049;-30
2023/05/10 04:33:36;;;;;;;10.60;6.05;;;;;;;20.81;55.77;96009.84;5034089;28;20021;-29
2023/05/10 04:36:02;;;;;;;6.93;5.20;;;;;;;20.63;56.59;96019.41;5034521;28;20021;-30
2023/05/10 04:38:27;;;;;;;12.63;5.85;;;;;;;20.84;56.75;96014.34;5034069;28;20030;-31
2023/05/10 04:40:53;;;;;;;10.55;5.78;;;;;;;20.67;57.52;96021.88;5034274;28;20026;-30
2023/05/10 04:43:20;;;;;;;11.55;5.53;;;;;;;20.63;57.81;96018.66;5033925;28;20469;-30
2023/05/10 04:45:45;;;;;;;8.27;4.50;;;;;;;20.60;58.02;96020.41;5033876;28;20044;-29
2023/05/10 04:48:11;;;;;;;8.10;5.25;;;;;;;20.64;57.64;96018.16;5041643;28;20472;-29
2023/05/10 04:50:37;;;;;;;7.68;4.65;;;;;;;20.63;57.86;96018.66;5033912;28;20091;-30
2023/05/10 04:53:02;;;;;;;6.72;4.68;;;;;;;20.52;58.23;96018.66;5033868;28;20539;-30
2023/05/10 04:55:27;;;;;;;5.05;4.55;;;;;;;20.40;58.60;96020.66;5033883;28;20037;-30
2023/05/10 04:57:56;;;;;;;6.47;4.60;;;;;;;20.57;58.24;96015.16;5033723;28;20029;-29
2023/05/10 05:00:22;;;;;;;4.95;4.30;;;;;;;20.48;58.10;96015.41;5034784;28;20033;-31
2023/05/10 05:02:47;;;;;;;8.52;4.35;;;;;;;20.42;58.29;96015.41;5038138;28;20372;-29
2023/05/10 05:05:13;;;;;;;5.88;4.28;;;;;;;20.61;57.70;96012.91;5033645;28;20029;-29
2023/05/10 05:07:38;;;;;;;6.22;4.20;;;;;;;20.55;57.94;96025.91;5033531;28;20108;-29
2023/05/10 05:10:08;;;;;;;5.45;3.92;;;;;;;20.44;58.20;96001.88;5033520;28;20029;-30
2023/05/10 05:12:35;;;;;;;6.50;3.40;;;;;;;20.54;57.82;96002.38;5033839;28;20025;-31
2023/05/10 05:15:01;;;;;;;6.72;4.05;;;;;;;20.62;57.56;96008.88;5033586;28;20072;-30
2023/05/10 05:17:27;;;;;;;5.72;3.53;;;;;;;20.64;57.59;95998.88;5033326;28;20048;-30
2023/05/10 05:19:52;;;;;;;5.50;3.78;;;;;;;20.40;58.14;95996.63;5033783;28;20465;-30
2023/05/10 05:22:19;;;;;;;4.70;3.40;;;;;;;20.41;58.14;96000.88;5033538;28;20032;-31
2023/05/10 05:24:44;;;;;;;6.60;2.90;;;;;;;20.35;58.35;95993.84;5033248;28;20436;-30
2023/05/10 05:27:10;;;;;;;5.43;3.13;;;;;;;20.45;58.12;95992.38;5033057;28;20022;-30
2023/05/10 05:29:35;;;;;;;5.72;3.70;;;;;;;20.42;58.11;95996.88;5033266;28;20028;-29
2023/05/10 05:32:01;;;;;;;4.90;2.80;;;;;;;20.30;58.23;95994.59;5033030;28;20064;-29
2023/05/10 05:34:26;;;;;;;4.88;2.53;;;;;;;20.64;57.74;95995.38;5035195;28;20017;-30
2023/05/10 05:36:52;;;;;;;4.20;3.25;;;;;;;20.37;58.51;95991.38;5040711;28;20025;-29
2023/05/10 05:39:17;;;;;;;4.05;2.80;;;;;;;20.34;58.92;95989.59;5033212;28;20493;-30
2023/05/10 05:41:44;;;;;;;3.25;2.58;;;;;;;20.37;58.84;95989.38;5035431;28;20025;-31
2023/05/10 05:44:10;;;;;;;3.55;2.72;;;;;;;20.26;59.24;95986.59;5033234;28;20029;-30
2023/05/10 05:46:35;;;;;;;4.72;3.25;;;;;;;20.42;58.77;95994.13;5032709;28;20035;-30
2023/05/10 05:49:01;;;;;;;3.55;2.72;;;;;;;20.18;59.44;95998.59;5033061;28;20017;-30
2023/05/10 05:51:26;;;;;;;5.22;3.25;;;;;;;20.37;59.52;95992.13;5037760;28;20465;-30
2023/05/10 05:53:51;;;;;;;5.63;2.85;;;;;;;20.51;59.21;95989.63;5037102;28;20461;-30
2023/05/10 05:56:23;;;;;;;5.22;3.28;;;;;;;20.13;60.06;95991.84;5037380;28;20038;-30
2023/05/10 05:58:49;;;;;;;5.18;2.90;;;;;;;20.22;60.04;95994.34;5037110;28;20049;-29
2023/05/10 06:01:15;;;;;;;6.38;3.55;;;;;;;20.10;60.50;95998.34;5036887;28;20477;-29
2023/05/10 06:03:40;;;;;;;4.57;3.28;;;;;;;20.02;60.59;95995.34;5037253;28;20017;-30
2023/05/10 06:06:05;;;;;;;5.25;2.97;;;;;;;20.20;59.92;95996.84;5035579;28;20037;-30
2023/05/10 06:08:31;;;;;;;8.18;3.33;;;;;;;20.28;59.66;95994.34;5036880;28;20034;-30
2023/05/10 06:10:56;;;;;;;3.58;2.80;;;;;;;20.21;60.05;96000.34;5036660;28;20017;-29
2023/05/10 06:13:22;;;;;;;6.63;2.90;;;;;;;20.28;60.10;95997.84;5036626;28;20381;-29
2023/05/10 06:15:47;;;;;;;4.45;2.90;;;;;;;20.42;59.51;95990.59;5036696;28;20465;-30
2023/05/10 06:18:12;;;;;;;3.58;3.03;;;;;;;20.22;60.10;95999.09;5036724;28;20075;-30
2023/05/10 06:20:38;;;;;;;4.00;2.67;;;;;;;20.09;60.61;95996.84;5036989;28;20029;-30
2023/05/10 06:23:03;;;;;;;6.07;3.08;;;;;;;20.23;60.24;95990.34;5036411;28;20021;-30
2023/05/10 06:25:29;;;;;;;4.85;2.90;;;;;;;20.15;60.09;95994.88;5036353;28;20350;-29
2023/05/10 06:27:57;;;;;;;3.92;2.60;;;;;;;20.11;60.66;95999.09;5036487;28;20070;-29
2023/05/10 06:30:27;;;;;;;5.82;2.50;;;;;;;20.25;60.20;95993.34;5036555;28;20525;-29
2023/05/10 06:32:53;;;;;;;3.97;2.55;;;;;;;20.25;59.92;96004.38;5036770;28;20026;-29
2023/05/10 06:35:18;;;;;;;5.60;2.50;;;;;;;19.99;60.62;95998.34;5035236;28;20382;-30
2023/05/10 06:37:44;;;;;;;6.30;2.97;;;;;;;20.16;60.34;96012.84;5036960;28;20040;-29
2023/05/10 06:40:09;;;;;;;5.60;2.60;;;;;;;20.16;60.28;96004.59;5036140;28;20100;-30
2023/05/10 06:42:35;;;;;;;5.10;2.60;;;;;;;20.30;59.88;96000.84;5036388;28;20033;-30
2023/05/10 06:45:00;;;;;;;4.63;2.58;;;;;;;20.28;60.29;96008.09;5036497;28;20025;-31
2023/05/10 06:47:26;;;;;;;7.57;2.50;;;;;;;20.26;60.48;96003.13;5036095;28;20025;-31
2023/05/10 06:49:51;;;;;;;3.03;2.30;;;;;;;20.19;60.68;96003.59;5035911;28;20385;-29
2023/05/10 06:52:17;;;;;;;2.80;1.90;;;;;;;20.29;60.08;95999.34;5036072;28;20026;-29
2023/05/10 06:54:42;;;;;;;4.82;2.22;;;;;;;20.38;60.13;95996.38;5036120;28;20021;-31
2023/05/10 06:57:07;;;;;;;5.13;2.10;;;;;;;20.27;60.50;95998.38;5035947;28;20021;-30
2023/05/10 06:59:33;;;;;;;6.40;2.35;;;;;;;20.30;60.31;95998.09;5035766;28;20048;-30
2023/05/10 07:01:58;;;;;;;3.38;2.15;;;;;;;20.08;61.25;95990.59;5035379;28;20021;-29
2023/05/10 07:04:23;;;;;;;2.80;2.10;;;;;;;20.18;60.95;95991.09;5035969;28;20477;-29
2023/05/10 07:06:49;;;;;;;5.35;2.00;;;;;;;20.14;61.06;95996.13;5043161;28;20053;-29
2023/05/10 07:09:16;;;;;;;3.03;1.77;;;;;;;20.20;60.76;95996.09;5035706;28;20025;-29
2023/05/10 07:11:41;;;;;;;3.60;1.92;;;;;;;20.15;60.90;95992.13;5035642;28;20028;-29
2023/05/10 07:14:07;;;;;;;2.97;1.52;;;;;;;20.10;60.94;95998.34;5035724;28;20025;-30
2023/05/10 07:16:32;;;;;;;4.75;1.90;;;;;;;20.16;60.84;95996.34;5036003;28;20029;-29
2023/05/10 07:18:57;;;;;;;3.50;1.60;;;;;;;20.22;60.67;95988.84;5040426;28;20040;-29
2023/05/10 07:21:28;;;;;;;4.15;1.85;;;;;;;20.28;60.57;95991.59;5037441;28;20108;-30
2023/05/10 07:23:54;;;;;;;5.40;1.80;;;;;;;20.32;60.47;95984.59;5035616;28;20439;-30
2023/05/10 07:26:20;;;;;;;6.30;2.15;;;;;;;20.39;60.52;95992.38;5035415;28;20108;-30
2023/05/10 07:28:46;;;;;;;6.40;2.15;;;;;;;20.29;60.67;95993.84;5035423;28;20424;-29
2023/05/10 07:31:11;;;;;;;4.47;1.75;;;;;;;20.33;60.88;95983.34;5035317;28;20021;-29
2023/05/10 07:33:37;;;;;;;4.15;1.90;;;;;;;20.17;61.28;95983.31;5037943;28;20041;-30
2023/05/10 07:36:02;;;;;;;3.42;1.60;;;;;;;20.24;60.58;95985.59;5035260;28;20094;-30
2023/05/10 07:38:27;;;;;;;4.38;1.65;;;;;;;20.22;60.61;95979.84;5035906;28;20018;-29
2023/05/10 07:40:53;;;;;;;3.58;1.70;;;;;;;20.21;61.06;95976.31;5035813;28;20049;-29
2023/05/10 07:43:18;;;;;;;5.03;2.53;;;;;;;20.11;61.21;95977.84;5040991;28;20056;-29
2023/05/10 07:45:44;;;;;;;6.13;2.10;;;;;;;20.22;60.97;95977.84;5034811;28;20116;-30
2023/05/10 07:48:09;;;;;;;4.45;1.70;;;;;;;20.28;60.68;95981.31;5035187;28;20026;-30
2023/05/10 07:50:35;;;;;;;8.23;2.95;;;;;;;20.22;60.91;95988.84;5034872;28;20036;-29
2023/05/10 07:53:00;;;;;;;3.85;1.38;;;;;;;20.24;60.83;95978.09;5034762;28;20017;-29
2023/05/10 07:55:26;;;;;;;1.88;1.40;;;;;;;20.38;60.48;95977.13;5035020;28;20072;-29
2023/05/10 07:57:51;;;;;;;4.03;1.50;;;;;;;20.24;60.87;95980.09;5034991;28;20049;-30
2023/05/10 08:00:18;;;;;;;4.18;1.50;;;;;;;19.83;62.09;95985.31;5034749;28;20083;-29
2023/05/10 08:02:44;;;;;;;2.63;1.58;;;;;;;20.06;60.94;95981.31;5035044;28;20026;-30
2023/05/10 08:05:10;;;;;;;3.47;1.48;;;;;;;20.01;61.26;95976.59;5034699;28;20036;-30
2023/05/10 08:07:36;;;;;;;3.10;1.58;;;;;;;20.12;61.06;95982.09;5034819;28;20029;-30
2023/05/10 08:10:02;;;;;;;3.35;1.30;;;;;;;20.25;60.96;95976.84;5034543;28;20488;-30
2023/05/10 08:12:27;;;;;;;4.32;2.08;;;;;;;20.11;61.18;95980.59;5033701;28;20048;-30
2023/05/10 08:14:53;;;;;;;4.35;1.70;;;;;;;20.07;61.13;95980.06;5034782;28;20029;-29
2023/05/10 08:17:18;;;;;;;7.13;2.15;;;;;;;20.06;61.13;95970.31;5034424;28;20017;-29
2023/05/10 08:19:43;;;;;;;3.30;1.77;;;;;;;20.16;60.71;95963.31;5041774;28;20029;-30
2023/05/10 08:22:09;;;;;;;3.55;1.58;;;;;;;20.20;60.71;95963.81;5034370;28;20408;-30
2023/05/10 08:24:38;;;;;;;3.33;1.75;;;;;;;20.11;60.91;95969.56;5034445;28;20022;-29
2023/05/10 08:27:04;;;;;;;3.88;2.03;;;;;;;20.10;60.96;95965.31;5033936;28;20025;-29
2023/05/10 08:29:30;;;;;;;3.50;1.98;;;;;;;20.01;60.91;95958.06;5034267;28;20025;-30
2023/05/10 08:31:55;;;;;;;3.67;1.95;;;;;;;20.17;60.69;95964.81;5034301;28;20412;-31
2023/05/10 08:34:21;;;;;;;3.10;1.70;;;;;;;20.06;61.14;95960.06;5034240;28;20021;-29
2023/05/10 08:36:46;;;;;;;5.63;1.60;;;;;;;19.97;61.12;95962.31;5034152;28;20022;-31
2023/05/10 08:39:12;;;;;;;4.32;1.75;;;;;;;20.18;60.41;95960.81;5034165;28;20021;-31
2023/05/10 08:41:39;;;;;;;3.72;1.50;;;;;;;19.94;61.19;95955.03;5033750;28;20032;-30
2023/05/10 08:44:07;;;;;;;2.60;1.27;;;;;;;19.94;60.76;95955.81;5033856;28;20021;-30
2023/05/10 08:46:38;;;;;;;4.95;1.27;;;;;;;20.01;60.32;95958.06;5034064;28;20026;-29
2023/05/10 08:49:06;;;;;;;2.45;1.20;;;;;;;20.22;59.95;95947.53;5034323;28;20041;-29
2023/05/10 08:51:36;;;;;;;2.00;1.00;;;;;;;20.00;60.86;95945.56;5034102;28;20531;-29
2023/05/10 08:54:03;;;;;;;2.30;1.20;;;;;;;19.81;61.25;95946.53;5034098;28;20025;-32
2023/05/10 08:56:29;;;;;;;3.42;1.02;;;;;;;19.92;61.08;95941.03;5033473;28;20481;-30
2023/05/10 08:58:56;;;;;;;2.08;1.00;;;;;;;19.95;61.15;95942.78;5033913;28;20028;-30
2023/05/10 09:01:22;;;;;;;2.75;0.82;;;;;;;20.23;60.30;95940.03;5034233;28;20366;-30
2023/05/10 09:03:50;;;;;;;4.40;0.98;;;;;;;19.89;61.40;95942.06;5033831;28;20026;-29
2023/05/10 09:06:15;;;;;;;1.35;0.70;;;;;;;19.86;61.56;95937.53;5033390;28;20068;-30
2023/05/10 09:08:42;;;;;;;2.00;0.80;;;;;;;20.08;60.72;95940.28;5037316;28;20107;-29
2023/05/10 09:11:09;;;;;;;2.03;0.95;;;;;;;20.08;59.98;95938.28;5033208;28;20100;-30
2023/05/10 09:13:35;;;;;;;3.22;0.95;;;;;;;20.14;59.99;95937.53;5033997;28;20033;-30
2023/05/10 09:16:02;;;;;;;2.35;0.98;;;;;;;20.07;60.20;95936.03;5033634;28;20028;-29
2023/05/10 09:18:27;;;;;;;2.85;0.77;;;;;;;20.17;60.15;95945.53;5033963;28;20021;-30
2023/05/10 09:20:53;;;;;;;3.53;1.10;;;;;;;20.27;60.00;95940.53;5040104;28;20030;-29
2023/05/10 09:23:18;;;;;;;3.58;1.30;;;;;;;20.26;60.34;95928.78;5033049;28;20021;-31
2023/05/10 09:25:44;;;;;;;4.88;2.33;;;;;;;20.09;61.34;95936.28;5033345;28;20091;-29
2023/05/10 09:28:09;;;;;;;3.45;2.17;;;;;;;20.07;61.80;95934.03;5033464;28;20017;-29
2023/05/10 09:30:36;;;;;;;2.60;2.20;;;;;;;20.08;61.63;95934.78;5033432;28;20461;-29
2023/05/10 09:33:01;;;;;;;2.80;1.73;;;;;;;20.02;60.68;95931.28;5033668;28;20028;-30
2023/05/10 09:35:30;;;;;;;2.63;1.00;;;;;;;19.96;60.48;95936.03;5035298;28;20108;-29
2023/05/10 09:37:59;;;;;;;5.55;1.10;;;;;;;19.99;60.52;95935.03;5033267;28;20376;-30
2023/05/10 09:40:26;;;;;;;7.22;3.92;;;;;;;19.98;60.44;95933.53;5033507;28;20045;-30
2023/05/10 09:43:00;;;;;;;9.90;5.93;;;;;;;20.10;60.33;95932.28;5033130;28;20433;-30
2023/05/10 09:45:29;;;;;;;7.18;4.47;;;;;;;19.81;60.95;95922.50;5032973;28;20030;-29
2023/05/10 09:47:55;;;;;;;4.30;2.63;;;;;;;20.01;60.30;95930.53;5039355;28;20051;-30
2023/05/10 09:50:21;;;;;;;7.18;5.47;;;;;;;19.94;60.81;95924.78;5033154;28;20013;-30
2023/05/10 09:52:50;;;;;;;31.90;20.92;;;;;;;20.02;60.51;95917.53;5033097;28;20469;-30
2023/05/10 09:55:17;;;;;;;18.20;13.10;;;;;;;20.15;59.86;95920.53;5032665;28;20053;-30
2023/05/10 09:57:43;;;;;;;16.58;10.95;;;;;;;20.31;59.66;95916.25;5033135;28;20018;-29
2023/05/10 10:00:12;;;;;;;16.58;14.85;;;;;;;20.00;60.55;95923.53;5033321;28;20024;-29
2023/05/10 10:02:38;;;;;;;11.00;8.57;;;;;;;19.86;61.01;95921.03;5033393;28;20456;-29
2023/05/10 10:05:06;;;;;;;5.90;5.18;;;;;;;20.07;60.62;95922.28;5032738;28;20087;-30
2023/05/10 10:07:32;;;;;;;4.03;3.00;;;;;;;20.05;60.56;95924.75;5040222;28;20026;-30
2023/05/10 10:09:59;;;;;;;3.35;2.55;;;;;;;20.06;60.46;95918.75;5031919;28;20021;-29
2023/05/10 10:12:25;;;;;;;2.67;2.30;;;;;;;20.12;60.41;95921.53;5032526;28;20113;-30
2023/05/10 10:14:50;;;;;;;4.65;2.00;;;;;;;20.26;60.06;95923.28;5032811;28;20413;-29
2023/05/10 10:17:16;;;;;;;6.75;3.10;;;;;;;20.08;60.75;95924.53;5032651;28;20022;-30
2023/05/10 10:19:43;;;;;;;3.65;3.10;;;;;;;19.95;61.06;95923.53;5040877;28;20021;-30
2023/05/10 10:22:11;;;;;;;4.05;3.22;;;;;;;19.86;61.44;95918.28;5032794;28;20049;-31
2023/05/10 10:24:38;;;;;;;6.80;4.32;;;;;;;19.96;61.22;95914.03;5032757;28;20018;-29
2023/05/10 10:27:19;;;;;;;6.10;4.75;;;;;;;19.88;61.32;95919.28;5032581;28;20017;-30
2023/05/10 10:29:57;;;;;;;9.18;5.13;;;;;;;20.02;60.90;95909.28;5032753;28;20037;-30
2023/05/10 10:32:47;;;;;;;4.55;3.17;;;;;;;20.06;60.89;95907.75;5032785;28;20435;-31
2023/05/10 10:35:13;;;;;;;5.10;2.90;;;;;;;20.11;60.76;95906.25;5031679;28;20072;-29
2023/05/10 10:37:47;;;;;;;3.80;2.35;;;;;;;20.02;60.86;95903.78;5036179;28;20412;-30
2023/05/10 10:40:32;;;;;;;3.08;1.95;;;;;;;20.00;61.32;95903.53;5036332;28;20018;-29
2023/05/10 10:43:21;;;;;;;2.60;1.50;;;;;;;20.00;61.20;95911.78;5036636;28;20022;-29
2023/05/10 10:46:13;;;;;;;4.75;1.90;;;;;;;19.94;61.41;95894.50;5036508;28;20021;-29
2023/05/10 10:48:39;;;;;;;3.05;2.28;;;;;;;19.83;61.67;95900.00;5036134;28;20028;-29
2023/05/10 10:51:04;;;;;;;3.00;2.00;;;;;;;19.72;61.92;95906.25;5036146;28;20025;-30
2023/05/10 10:53:30;;;;;;;3.97;1.77;;;;;;;19.73;61.74;95894.75;5036377;28;20028;-30
2023/05/10 10:56:14;;;;;;;6.25;1.80;;;;;;;19.66;62.14;95895.25;5035860;28;20420;-30
2023/05/10 10:58:41;;;;;;;2.58;1.80;;;;;;;19.88;61.78;95888.25;5035973;28;20029;-30
2023/05/10 11:01:17;;;;;;;1.52;1.33;;;;;;;19.88;61.36;95888.25;5034856;28;20052;-29
2023/05/10 11:04:15;;;;;;;3.05;2.15;;;;;;;19.81;62.03;95884.00;5036213;28;20029;-29
2023/05/10 11:06:42;;;;;;;6.70;2.40;;;;;;;19.86;62.03;95885.25;5038574;28;20036;-29
2023/05/10 11:09:10;;;;;;;4.07;2.25;;;;;;;19.69;62.27;95888.75;5035993;28;20085;-30
2023/05/10 11:11:47;;;;;;;3.85;1.85;;;;;;;19.87;62.02;95881.25;5042583;28;20480;-30
2023/05/10 11:14:13;;;;;;;6.07;2.33;;;;;;;19.79;61.72;95885.75;5043300;28;20029;-31
2023/05/10 11:16:43;;;;;;;2.90;1.55;;;;;;;19.83;62.26;95880.75;5035647;28;20029;-30
2023/05/10 11:19:13;;;;;;;3.67;1.70;;;;;;;19.98;61.80;95882.00;5036666;28;20036;-31
2023/05/10 11:21:50;;;;;;;5.85;1.40;;;;;;;19.85;62.44;95878.25;5035544;28;20025;-31
2023/05/10 11:24:18;;;;;;;3.88;1.48;;;;;;;19.75;62.59;95874.25;5035456;28;20029;-29
2023/05/10 11:26:43;;;;;;;2.80;1.65;;;;;;;19.75;62.56;95869.50;5035539;28;20124;-31
2023/05/10 11:29:09;;;;;;;6.88;3.03;;;;;;;19.83;62.35;95872.50;5035430;28;20076;-30
2023/05/10 11:31:35;;;;;;;5.20;2.60;;;;;;;19.91;62.08;95876.97;5035086;28;20358;-30
2023/05/10 11:34:03;;;;;;;7.55;3.10;;;;;;;19.85;62.23;95872.75;5035513;28;20559;-30
2023/05/10 11:36:34;;;;;;;6.40;2.58;;;;;;;19.77;62.72;95877.25;5035148;28;20432;-30
2023/05/10 11:39:00;;;;;;;3.95;1.92;;;;;;;19.84;62.79;95865.75;5037327;28;20025;-29